Vremea mâine în Codlea - Romania

Vrei sa afli care e starea vremii acum in Brasov - Romania? Dorim sa iti furnizam starea vremii pentru Brasov - Romania. Starea vremii Brasov - Romania pentru astazi.

Vremea mâine în Codlea

Temperatura minimă:
7.4 °C

Temperatura maximă:
20.7 °C

Mâine va fi: Patchy rain nearby
Precipitații: 88 %
Umiditate: 68%
Viteza maximă vânt mâine:
12.2 km/h

Evoluția vremii in Codlea pe ore mâine

Ora: 03:00
Temperatura: °C
Sansa de precipitatii: %
Ora Descriere Temp Se simte Precipitatii Umiditate Vant
00:00Senin8.5°7.9°0%88%S 5.4 KM/H
01:00Senin8.2°7.6°0%87%S 5.4 KM/H
02:00Senin7.6°0%87%S 4.7 KM/H
03:00Senin7.8°7.6°0%86%S 4 KM/H
04:00Senin7.6°7.6°0%85%S 3.6 KM/H
05:00Senin7.5°7.4°0%84%S 3.6 KM/H
06:00Senin7.4°7.6°0%84%SSE 3.2 KM/H
07:00Senin8.8°8.8°0%82%S 2.2 KM/H
08:00Senin11.6°11.6°0%74%NE 0.7 KM/H
09:00Senin13.9°13.9°0%65%NE 2.5 KM/H
10:00Senin16.1°16.1°0%54%NE 2.9 KM/H
11:00Senin17.8°17.8°0%48%NNE 4 KM/H
12:00Patchy rain nearby19.1°19.1°88%44%NNE 5 KM/H
13:00Patchy rain nearby20°20°100%41%NNE 5 KM/H
14:00Patchy rain nearby20.6°20.6°100%39%NE 3.6 KM/H
15:00Patchy rain nearby20.7°20.7°100%39%ESE 1.4 KM/H
16:00Patchy light rain in area with thunder20.3°20.3°100%41%SW 2.9 KM/H
17:00Thundery outbreaks in nearby19°19°100%49%SW 8.6 KM/H
18:00Patchy rain nearby17.7°17.7°83%57%SW 12.2 KM/H
19:00Patchy rain nearby16°16°68%67%SW 8.6 KM/H
20:00Patchy rain nearby13.5°13.5°67%77%WSW 6.1 KM/H
21:00Senin11.4°11.3°0%82%SSW 5 KM/H
22:00Senin10.5°9.8°0%84%S 6.8 KM/H
23:00Senin10°9.2°0%85%S 7.2 KM/H




tutorials